sensor_id;sensor_type;location;lat;lon;timestamp;P1;durP1;ratioP1;P2;durP2;ratioP2
22449;SDS011;11392;57.390;-2.468;2022-09-03T00:02:01;13.90;;;3.65;;
22449;SDS011;11392;57.390;-2.468;2022-09-03T00:07:25;8.23;;;3.45;;
22449;SDS011;11392;57.390;-2.468;2022-09-03T00:10:21;9.45;;;3.33;;
22449;SDS011;11392;57.390;-2.468;2022-09-03T00:13:15;10.20;;;3.17;;
22449;SDS011;11392;57.390;-2.468;2022-09-03T00:15:47;7.78;;;3.22;;
22449;SDS011;11392;57.390;-2.468;2022-09-03T00:18:18;7.75;;;2.75;;
22449;SDS011;11392;57.390;-2.468;2022-09-03T00:20:53;8.68;;;3.37;;
22449;SDS011;11392;57.390;-2.468;2022-09-03T00:23:34;8.30;;;3.28;;
22449;SDS011;11392;57.390;-2.468;2022-09-03T00:28:40;7.78;;;3.33;;
22449;SDS011;11392;57.390;-2.468;2022-09-03T00:31:36;10.43;;;3.05;;
22449;SDS011;11392;57.390;-2.468;2022-09-03T00:34:14;12.60;;;3.25;;
22449;SDS011;11392;57.390;-2.468;2022-09-03T00:36:43;11.95;;;3.00;;
22449;SDS011;11392;57.390;-2.468;2022-09-03T00:39:12;9.10;;;3.58;;
22449;SDS011;11392;57.390;-2.468;2022-09-03T00:41:47;10.85;;;3.25;;
22449;SDS011;11392;57.390;-2.468;2022-09-03T00:44:31;6.78;;;2.40;;
22449;SDS011;11392;57.390;-2.468;2022-09-03T00:55:48;9.25;;;3.50;;
22449;SDS011;11392;57.390;-2.468;2022-09-03T01:01:09;7.10;;;3.03;;
22449;SDS011;11392;57.390;-2.468;2022-09-03T01:12:42;14.20;;;4.25;;
22449;SDS011;11392;57.390;-2.468;2022-09-03T01:15:20;9.57;;;3.65;;
22449;SDS011;11392;57.390;-2.468;2022-09-03T01:20:57;9.82;;;3.53;;
22449;SDS011;11392;57.390;-2.468;2022-09-03T01:26:27;11.18;;;3.42;;
22449;SDS011;11392;57.390;-2.468;2022-09-03T01:29:16;16.37;;;4.60;;
22449;SDS011;11392;57.390;-2.468;2022-09-03T01:37:33;13.38;;;3.55;;
22449;SDS011;11392;57.390;-2.468;2022-09-03T02:00:11;9.25;;;3.40;;
22449;SDS011;11392;57.390;-2.468;2022-09-03T02:02:41;10.55;;;2.92;;
22449;SDS011;11392;57.390;-2.468;2022-09-03T02:05:20;13.02;;;3.42;;
22449;SDS011;11392;57.390;-2.468;2022-09-03T02:10:24;11.48;;;3.12;;
22449;SDS011;11392;57.390;-2.468;2022-09-03T02:12:58;14.00;;;3.35;;
22449;SDS011;11392;57.390;-2.468;2022-09-03T02:15:38;12.98;;;3.00;;
22449;SDS011;11392;57.390;-2.468;2022-09-03T02:18:51;7.35;;;2.97;;
22449;SDS011;11392;57.390;-2.468;2022-09-03T02:21:02;7.35;;;3.05;;
22449;SDS011;11392;57.390;-2.468;2022-09-03T02:23:30;10.95;;;2.90;;
22449;SDS011;11392;57.390;-2.468;2022-09-03T02:26:01;12.63;;;3.47;;
22449;SDS011;11392;57.390;-2.468;2022-09-03T02:28:29;12.50;;;3.33;;
22449;SDS011;11392;57.390;-2.468;2022-09-03T02:30:57;8.90;;;3.28;;
22449;SDS011;11392;57.390;-2.468;2022-09-03T02:33:24;12.37;;;3.08;;
22449;SDS011;11392;57.390;-2.468;2022-09-03T02:35:52;9.63;;;2.85;;
22449;SDS011;11392;57.390;-2.468;2022-09-03T02:38:20;10.00;;;3.72;;
22449;SDS011;11392;57.390;-2.468;2022-09-03T02:40:53;11.35;;;2.83;;
22449;SDS011;11392;57.390;-2.468;2022-09-03T02:46:00;13.25;;;3.92;;
22449;SDS011;11392;57.390;-2.468;2022-09-03T02:48:29;12.23;;;3.22;;
22449;SDS011;11392;57.390;-2.468;2022-09-03T02:50:56;11.90;;;3.70;;
22449;SDS011;11392;57.390;-2.468;2022-09-03T02:53:23;13.10;;;3.10;;
22449;SDS011;11392;57.390;-2.468;2022-09-03T02:55:57;7.87;;;3.03;;
22449;SDS011;11392;57.390;-2.468;2022-09-03T02:58:27;13.15;;;3.10;;
22449;SDS011;11392;57.390;-2.468;2022-09-03T03:00:56;13.68;;;3.90;;
22449;SDS011;11392;57.390;-2.468;2022-09-03T03:03:24;13.60;;;3.35;;
22449;SDS011;11392;57.390;-2.468;2022-09-03T03:05:53;12.52;;;3.30;;
22449;SDS011;11392;57.390;-2.468;2022-09-03T03:08:22;9.60;;;3.25;;
22449;SDS011;11392;57.390;-2.468;2022-09-03T03:10:56;11.07;;;3.12;;
22449;SDS011;11392;57.390;-2.468;2022-09-03T03:13:25;8.98;;;2.90;;
22449;SDS011;11392;57.390;-2.468;2022-09-03T03:15:59;11.18;;;4.62;;
22449;SDS011;11392;57.390;-2.468;2022-09-03T03:18:28;10.23;;;3.00;;
22449;SDS011;11392;57.390;-2.468;2022-09-03T03:20:55;11.18;;;3.53;;
22449;SDS011;11392;57.390;-2.468;2022-09-03T03:23:23;10.52;;;3.42;;
22449;SDS011;11392;57.390;-2.468;2022-09-03T03:25:50;15.55;;;3.55;;
22449;SDS011;11392;57.390;-2.468;2022-09-03T03:28:16;11.75;;;3.00;;
22449;SDS011;11392;57.390;-2.468;2022-09-03T03:30:45;9.93;;;2.90;;
22449;SDS011;11392;57.390;-2.468;2022-09-03T03:33:14;11.30;;;3.40;;
22449;SDS011;11392;57.390;-2.468;2022-09-03T03:35:41;10.95;;;3.00;;
22449;SDS011;11392;57.390;-2.468;2022-09-03T03:38:08;12.25;;;3.05;;
22449;SDS011;11392;57.390;-2.468;2022-09-03T03:40:36;9.13;;;2.75;;
22449;SDS011;11392;57.390;-2.468;2022-09-03T03:43:04;7.45;;;2.70;;
22449;SDS011;11392;57.390;-2.468;2022-09-03T03:45:31;13.13;;;3.75;;
22449;SDS011;11392;57.390;-2.468;2022-09-03T03:47:58;8.02;;;2.85;;
22449;SDS011;11392;57.390;-2.468;2022-09-03T03:50:25;12.18;;;3.10;;
22449;SDS011;11392;57.390;-2.468;2022-09-03T03:52:53;12.45;;;3.90;;
22449;SDS011;11392;57.390;-2.468;2022-09-03T03:55:20;14.50;;;3.65;;
22449;SDS011;11392;57.390;-2.468;2022-09-03T03:57:52;9.18;;;3.47;;
22449;SDS011;11392;57.390;-2.468;2022-09-03T04:00:19;13.32;;;3.47;;
22449;SDS011;11392;57.390;-2.468;2022-09-03T04:02:49;12.32;;;3.58;;
22449;SDS011;11392;57.390;-2.468;2022-09-03T04:05:16;7.55;;;3.00;;
22449;SDS011;11392;57.390;-2.468;2022-09-03T04:07:48;12.88;;;3.40;;
22449;SDS011;11392;57.390;-2.468;2022-09-03T04:10:15;11.25;;;3.70;;
22449;SDS011;11392;57.390;-2.468;2022-09-03T04:12:42;13.62;;;3.75;;
22449;SDS011;11392;57.390;-2.468;2022-09-03T04:15:09;15.52;;;3.55;;
22449;SDS011;11392;57.390;-2.468;2022-09-03T04:17:36;13.80;;;3.58;;
22449;SDS011;11392;57.390;-2.468;2022-09-03T04:20:05;9.88;;;3.67;;
22449;SDS011;11392;57.390;-2.468;2022-09-03T04:22:32;11.38;;;4.20;;
22449;SDS011;11392;57.390;-2.468;2022-09-03T04:24:59;5.85;;;3.33;;
22449;SDS011;11392;57.390;-2.468;2022-09-03T04:27:26;12.48;;;4.07;;
22449;SDS011;11392;57.390;-2.468;2022-09-03T04:29:53;13.30;;;4.32;;
22449;SDS011;11392;57.390;-2.468;2022-09-03T04:32:20;9.98;;;3.70;;
22449;SDS011;11392;57.390;-2.468;2022-09-03T04:35:06;9.63;;;3.20;;
22449;SDS011;11392;57.390;-2.468;2022-09-03T04:37:33;14.32;;;3.95;;
22449;SDS011;11392;57.390;-2.468;2022-09-03T04:40:00;9.82;;;3.75;;
22449;SDS011;11392;57.390;-2.468;2022-09-03T04:42:27;11.00;;;4.07;;
22449;SDS011;11392;57.390;-2.468;2022-09-03T04:44:54;14.60;;;4.95;;
22449;SDS011;11392;57.390;-2.468;2022-09-03T04:47:21;14.18;;;3.47;;
22449;SDS011;11392;57.390;-2.468;2022-09-03T04:49:48;14.20;;;4.00;;
22449;SDS011;11392;57.390;-2.468;2022-09-03T04:52:15;12.37;;;3.17;;
22449;SDS011;11392;57.390;-2.468;2022-09-03T04:54:41;14.30;;;3.60;;
22449;SDS011;11392;57.390;-2.468;2022-09-03T04:57:08;10.73;;;3.75;;
22449;SDS011;11392;57.390;-2.468;2022-09-03T04:59:35;11.18;;;3.47;;
22449;SDS011;11392;57.390;-2.468;2022-09-03T05:02:02;10.45;;;4.00;;
22449;SDS011;11392;57.390;-2.468;2022-09-03T05:04:29;13.95;;;3.58;;
22449;SDS011;11392;57.390;-2.468;2022-09-03T05:06:56;11.60;;;3.67;;
22449;SDS011;11392;57.390;-2.468;2022-09-03T05:09:23;8.75;;;3.37;;
22449;SDS011;11392;57.390;-2.468;2022-09-03T05:11:50;13.55;;;4.00;;
22449;SDS011;11392;57.390;-2.468;2022-09-03T05:14:17;8.20;;;3.35;;
22449;SDS011;11392;57.390;-2.468;2022-09-03T05:16:44;7.70;;;3.58;;
22449;SDS011;11392;57.390;-2.468;2022-09-03T05:19:18;11.90;;;3.60;;
22449;SDS011;11392;57.390;-2.468;2022-09-03T05:21:45;6.82;;;3.20;;
22449;SDS011;11392;57.390;-2.468;2022-09-03T05:24:12;11.00;;;3.87;;
22449;SDS011;11392;57.390;-2.468;2022-09-03T05:26:40;13.27;;;4.03;;
22449;SDS011;11392;57.390;-2.468;2022-09-03T05:29:07;7.32;;;3.20;;
22449;SDS011;11392;57.390;-2.468;2022-09-03T05:31:35;14.70;;;4.90;;
22449;SDS011;11392;57.390;-2.468;2022-09-03T05:34:04;13.82;;;4.32;;
22449;SDS011;11392;57.390;-2.468;2022-09-03T05:36:34;11.88;;;3.85;;
22449;SDS011;11392;57.390;-2.468;2022-09-03T05:39:03;13.15;;;3.95;;
22449;SDS011;11392;57.390;-2.468;2022-09-03T05:41:30;9.32;;;3.40;;
22449;SDS011;11392;57.390;-2.468;2022-09-03T05:43:59;12.95;;;3.50;;
22449;SDS011;11392;57.390;-2.468;2022-09-03T05:46:28;11.80;;;3.97;;
22449;SDS011;11392;57.390;-2.468;2022-09-03T05:48:58;6.05;;;2.85;;
22449;SDS011;11392;57.390;-2.468;2022-09-03T05:51:26;12.82;;;3.87;;
22449;SDS011;11392;57.390;-2.468;2022-09-03T05:53:54;14.48;;;4.70;;
22449;SDS011;11392;57.390;-2.468;2022-09-03T05:56:22;12.85;;;3.30;;
22449;SDS011;11392;57.390;-2.468;2022-09-03T05:58:51;10.88;;;4.28;;
22449;SDS011;11392;57.390;-2.468;2022-09-03T06:03:54;12.90;;;4.45;;
22449;SDS011;11392;57.390;-2.468;2022-09-03T06:06:44;10.95;;;3.72;;
22449;SDS011;11392;57.390;-2.468;2022-09-03T06:09:13;11.30;;;3.80;;
22449;SDS011;11392;57.390;-2.468;2022-09-03T06:11:44;13.13;;;4.35;;
22449;SDS011;11392;57.390;-2.468;2022-09-03T06:14:12;11.50;;;4.75;;
22449;SDS011;11392;57.390;-2.468;2022-09-03T06:16:41;9.32;;;3.25;;
22449;SDS011;11392;57.390;-2.468;2022-09-03T06:19:09;11.70;;;4.07;;
22449;SDS011;11392;57.390;-2.468;2022-09-03T06:21:39;15.45;;;3.97;;
22449;SDS011;11392;57.390;-2.468;2022-09-03T06:24:11;11.90;;;4.12;;
22449;SDS011;11392;57.390;-2.468;2022-09-03T06:26:43;12.60;;;3.45;;
22449;SDS011;11392;57.390;-2.468;2022-09-03T06:29:10;10.07;;;3.97;;
22449;SDS011;11392;57.390;-2.468;2022-09-03T06:31:38;15.00;;;3.92;;
22449;SDS011;11392;57.390;-2.468;2022-09-03T06:34:05;10.20;;;3.62;;
22449;SDS011;11392;57.390;-2.468;2022-09-03T06:36:33;10.95;;;4.05;;
22449;SDS011;11392;57.390;-2.468;2022-09-03T06:39:00;11.70;;;3.97;;
22449;SDS011;11392;57.390;-2.468;2022-09-03T06:41:28;12.57;;;3.50;;
22449;SDS011;11392;57.390;-2.468;2022-09-03T06:44:01;13.45;;;3.65;;
22449;SDS011;11392;57.390;-2.468;2022-09-03T06:46:31;11.38;;;3.62;;
22449;SDS011;11392;57.390;-2.468;2022-09-03T06:49:00;8.63;;;3.30;;
22449;SDS011;11392;57.390;-2.468;2022-09-03T06:51:28;9.40;;;3.33;;
22449;SDS011;11392;57.390;-2.468;2022-09-03T06:54:00;9.18;;;3.22;;
22449;SDS011;11392;57.390;-2.468;2022-09-03T06:56:32;12.60;;;3.85;;
22449;SDS011;11392;57.390;-2.468;2022-09-03T06:59:06;8.70;;;3.00;;
22449;SDS011;11392;57.390;-2.468;2022-09-03T07:01:38;12.48;;;3.20;;
22449;SDS011;11392;57.390;-2.468;2022-09-03T07:04:10;11.40;;;4.15;;
22449;SDS011;11392;57.390;-2.468;2022-09-03T07:06:38;8.82;;;3.03;;
22449;SDS011;11392;57.390;-2.468;2022-09-03T07:09:07;6.60;;;3.05;;
22449;SDS011;11392;57.390;-2.468;2022-09-03T07:11:35;11.98;;;3.85;;
22449;SDS011;11392;57.390;-2.468;2022-09-03T07:14:04;10.35;;;3.53;;
22449;SDS011;11392;57.390;-2.468;2022-09-03T07:16:32;10.48;;;3.12;;
22449;SDS011;11392;57.390;-2.468;2022-09-03T07:19:01;12.25;;;3.72;;
22449;SDS011;11392;57.390;-2.468;2022-09-03T07:21:30;11.48;;;4.40;;
22449;SDS011;11392;57.390;-2.468;2022-09-03T07:24:11;8.45;;;3.50;;
22449;SDS011;11392;57.390;-2.468;2022-09-03T07:26:39;7.55;;;2.87;;
22449;SDS011;11392;57.390;-2.468;2022-09-03T07:29:11;13.20;;;3.75;;
22449;SDS011;11392;57.390;-2.468;2022-09-03T07:31:40;11.48;;;3.53;;
22449;SDS011;11392;57.390;-2.468;2022-09-03T07:34:09;13.68;;;3.55;;
22449;SDS011;11392;57.390;-2.468;2022-09-03T07:36:39;11.70;;;3.22;;
22449;SDS011;11392;57.390;-2.468;2022-09-03T07:39:09;18.83;;;5.43;;
22449;SDS011;11392;57.390;-2.468;2022-09-03T07:41:37;10.80;;;3.83;;
22449;SDS011;11392;57.390;-2.468;2022-09-03T07:44:08;14.18;;;4.43;;
22449;SDS011;11392;57.390;-2.468;2022-09-03T07:46:37;9.35;;;3.95;;
22449;SDS011;11392;57.390;-2.468;2022-09-03T07:49:05;10.82;;;3.95;;
22449;SDS011;11392;57.390;-2.468;2022-09-03T07:51:34;10.52;;;3.60;;
22449;SDS011;11392;57.390;-2.468;2022-09-03T07:54:06;9.40;;;3.42;;
22449;SDS011;11392;57.390;-2.468;2022-09-03T07:56:36;11.43;;;4.10;;
22449;SDS011;11392;57.390;-2.468;2022-09-03T07:59:05;10.90;;;3.30;;
22449;SDS011;11392;57.390;-2.468;2022-09-03T08:01:32;12.55;;;4.35;;
22449;SDS011;11392;57.390;-2.468;2022-09-03T08:04:00;11.38;;;3.10;;
22449;SDS011;11392;57.390;-2.468;2022-09-03T08:06:29;12.15;;;4.37;;
22449;SDS011;11392;57.390;-2.468;2022-09-03T08:09:03;11.75;;;3.67;;
22449;SDS011;11392;57.390;-2.468;2022-09-03T08:11:32;11.32;;;4.07;;
22449;SDS011;11392;57.390;-2.468;2022-09-03T08:14:03;10.07;;;3.67;;
22449;SDS011;11392;57.390;-2.468;2022-09-03T08:16:38;12.25;;;4.55;;
22449;SDS011;11392;57.390;-2.468;2022-09-03T08:19:07;11.55;;;4.00;;
22449;SDS011;11392;57.390;-2.468;2022-09-03T08:21:35;18.37;;;4.07;;
22449;SDS011;11392;57.390;-2.468;2022-09-03T08:24:02;10.85;;;4.12;;
22449;SDS011;11392;57.390;-2.468;2022-09-03T08:26:30;11.43;;;4.03;;
22449;SDS011;11392;57.390;-2.468;2022-09-03T08:28:59;14.20;;;3.80;;
22449;SDS011;11392;57.390;-2.468;2022-09-03T08:31:27;11.73;;;4.00;;
22449;SDS011;11392;57.390;-2.468;2022-09-03T08:33:56;12.20;;;3.62;;
22449;SDS011;11392;57.390;-2.468;2022-09-03T08:36:25;14.90;;;4.40;;
22449;SDS011;11392;57.390;-2.468;2022-09-03T08:38:56;7.32;;;3.62;;
22449;SDS011;11392;57.390;-2.468;2022-09-03T08:49:41;14.23;;;3.53;;
22449;SDS011;11392;57.390;-2.468;2022-09-03T08:57:49;14.48;;;3.80;;
22449;SDS011;11392;57.390;-2.468;2022-09-03T09:06:14;9.48;;;4.22;;
22449;SDS011;11392;57.390;-2.468;2022-09-03T09:14:32;16.05;;;4.15;;
22449;SDS011;11392;57.390;-2.468;2022-09-03T09:22:25;12.77;;;4.62;;
22449;SDS011;11392;57.390;-2.468;2022-09-03T09:25:03;16.15;;;4.70;;
22449;SDS011;11392;57.390;-2.468;2022-09-03T09:27:34;12.73;;;4.20;;
22449;SDS011;11392;57.390;-2.468;2022-09-03T09:30:03;13.68;;;3.83;;
22449;SDS011;11392;57.390;-2.468;2022-09-03T09:32:31;12.57;;;4.07;;
22449;SDS011;11392;57.390;-2.468;2022-09-03T09:34:59;13.50;;;4.50;;
22449;SDS011;11392;57.390;-2.468;2022-09-03T09:37:26;19.10;;;5.12;;
22449;SDS011;11392;57.390;-2.468;2022-09-03T09:39:58;15.27;;;4.07;;
22449;SDS011;11392;57.390;-2.468;2022-09-03T09:42:26;18.73;;;4.78;;
22449;SDS011;11392;57.390;-2.468;2022-09-03T09:44:56;14.25;;;5.25;;
22449;SDS011;11392;57.390;-2.468;2022-09-03T09:47:36;14.18;;;5.30;;
22449;SDS011;11392;57.390;-2.468;2022-09-03T09:50:14;14.90;;;4.45;;
22449;SDS011;11392;57.390;-2.468;2022-09-03T09:52:59;16.55;;;4.22;;
22449;SDS011;11392;57.390;-2.468;2022-09-03T09:55:33;15.98;;;4.45;;
22449;SDS011;11392;57.390;-2.468;2022-09-03T09:58:06;13.65;;;4.65;;
22449;SDS011;11392;57.390;-2.468;2022-09-03T10:00:39;14.25;;;4.25;;
22449;SDS011;11392;57.390;-2.468;2022-09-03T10:03:09;14.43;;;3.87;;
22449;SDS011;11392;57.390;-2.468;2022-09-03T10:05:39;14.55;;;4.20;;
22449;SDS011;11392;57.390;-2.468;2022-09-03T10:08:16;15.73;;;4.20;;
22449;SDS011;11392;57.390;-2.468;2022-09-03T10:10:45;14.82;;;4.55;;
22449;SDS011;11392;57.390;-2.468;2022-09-03T10:15:54;10.60;;;4.43;;
22449;SDS011;11392;57.390;-2.468;2022-09-03T10:18:38;21.12;;;6.00;;
22449;SDS011;11392;57.390;-2.468;2022-09-03T10:26:41;14.75;;;3.80;;
22449;SDS011;11392;57.390;-2.468;2022-09-03T10:29:10;11.30;;;4.28;;
22449;SDS011;11392;57.390;-2.468;2022-09-03T10:34:47;11.45;;;3.92;;
22449;SDS011;11392;57.390;-2.468;2022-09-03T10:37:37;16.12;;;4.40;;
22449;SDS011;11392;57.390;-2.468;2022-09-03T10:51:35;11.52;;;3.47;;
22449;SDS011;11392;57.390;-2.468;2022-09-03T10:56:58;13.65;;;4.22;;
22449;SDS011;11392;57.390;-2.468;2022-09-03T11:05:23;10.38;;;3.42;;
22449;SDS011;11392;57.390;-2.468;2022-09-03T11:10:51;9.95;;;3.17;;
22449;SDS011;11392;57.390;-2.468;2022-09-03T11:13:23;12.10;;;4.00;;
22449;SDS011;11392;57.390;-2.468;2022-09-03T11:15:55;10.60;;;3.03;;
22449;SDS011;11392;57.390;-2.468;2022-09-03T11:18:28;9.93;;;3.37;;
22449;SDS011;11392;57.390;-2.468;2022-09-03T11:20:57;12.65;;;3.67;;
22449;SDS011;11392;57.390;-2.468;2022-09-03T11:23:36;12.50;;;3.37;;
22449;SDS011;11392;57.390;-2.468;2022-09-03T11:26:09;11.50;;;3.67;;
22449;SDS011;11392;57.390;-2.468;2022-09-03T11:31:36;17.35;;;4.10;;
22449;SDS011;11392;57.390;-2.468;2022-09-03T11:37:05;13.85;;;3.62;;
22449;SDS011;11392;57.390;-2.468;2022-09-03T11:42:44;14.45;;;3.67;;
22449;SDS011;11392;57.390;-2.468;2022-09-03T11:47:57;10.75;;;4.30;;
22449;SDS011;11392;57.390;-2.468;2022-09-03T11:50:25;10.07;;;3.67;;
22449;SDS011;11392;57.390;-2.468;2022-09-03T11:58:44;10.73;;;4.15;;
22449;SDS011;11392;57.390;-2.468;2022-09-03T12:01:13;17.73;;;3.95;;
22449;SDS011;11392;57.390;-2.468;2022-09-03T12:14:39;13.62;;;4.25;;
22449;SDS011;11392;57.390;-2.468;2022-09-03T12:20:11;10.48;;;3.20;;
22449;SDS011;11392;57.390;-2.468;2022-09-03T12:22:39;16.95;;;3.85;;
22449;SDS011;11392;57.390;-2.468;2022-09-03T12:25:09;8.80;;;3.78;;
22449;SDS011;11392;57.390;-2.468;2022-09-03T12:27:39;12.50;;;3.55;;
22449;SDS011;11392;57.390;-2.468;2022-09-03T12:30:19;10.02;;;3.17;;
22449;SDS011;11392;57.390;-2.468;2022-09-03T12:32:48;12.75;;;3.10;;
22449;SDS011;11392;57.390;-2.468;2022-09-03T12:35:19;10.35;;;3.40;;
22449;SDS011;11392;57.390;-2.468;2022-09-03T12:38:11;13.07;;;3.50;;
22449;SDS011;11392;57.390;-2.468;2022-09-03T12:40:44;10.82;;;3.92;;
22449;SDS011;11392;57.390;-2.468;2022-09-03T12:43:31;11.30;;;3.30;;
22449;SDS011;11392;57.390;-2.468;2022-09-03T12:46:12;10.80;;;3.33;;
22449;SDS011;11392;57.390;-2.468;2022-09-03T12:48:57;11.98;;;3.42;;
22449;SDS011;11392;57.390;-2.468;2022-09-03T12:51:50;15.13;;;3.80;;
22449;SDS011;11392;57.390;-2.468;2022-09-03T12:54:30;9.68;;;3.25;;
22449;SDS011;11392;57.390;-2.468;2022-09-03T12:56:58;10.40;;;2.97;;
22449;SDS011;11392;57.390;-2.468;2022-09-03T12:59:26;9.50;;;3.33;;
22449;SDS011;11392;57.390;-2.468;2022-09-03T13:01:58;9.75;;;3.05;;
22449;SDS011;11392;57.390;-2.468;2022-09-03T13:04:37;10.48;;;3.47;;
22449;SDS011;11392;57.390;-2.468;2022-09-03T13:07:13;9.45;;;3.15;;
22449;SDS011;11392;57.390;-2.468;2022-09-03T13:09:47;10.32;;;2.75;;
22449;SDS011;11392;57.390;-2.468;2022-09-03T13:12:48;9.75;;;3.70;;
22449;SDS011;11392;57.390;-2.468;2022-09-03T13:15:15;8.38;;;3.15;;
22449;SDS011;11392;57.390;-2.468;2022-09-03T13:17:56;10.60;;;3.42;;
22449;SDS011;11392;57.390;-2.468;2022-09-03T13:20:53;9.20;;;3.45;;
22449;SDS011;11392;57.390;-2.468;2022-09-03T13:23:49;9.70;;;3.08;;
22449;SDS011;11392;57.390;-2.468;2022-09-03T13:32:01;13.90;;;4.50;;
22449;SDS011;11392;57.390;-2.468;2022-09-03T13:34:51;12.00;;;4.28;;
22449;SDS011;11392;57.390;-2.468;2022-09-03T13:37:27;14.98;;;3.97;;
22449;SDS011;11392;57.390;-2.468;2022-09-03T13:40:23;10.88;;;3.95;;
22449;SDS011;11392;57.390;-2.468;2022-09-03T13:43:41;11.30;;;3.35;;
22449;SDS011;11392;57.390;-2.468;2022-09-03T13:48:42;12.68;;;3.50;;
22449;SDS011;11392;57.390;-2.468;2022-09-03T13:51:30;12.93;;;3.75;;
22449;SDS011;11392;57.390;-2.468;2022-09-03T13:54:16;10.15;;;3.58;;
22449;SDS011;11392;57.390;-2.468;2022-09-03T13:57:29;11.48;;;3.87;;
22449;SDS011;11392;57.390;-2.468;2022-09-03T14:00:12;11.48;;;3.70;;
22449;SDS011;11392;57.390;-2.468;2022-09-03T14:03:02;13.57;;;4.10;;
22449;SDS011;11392;57.390;-2.468;2022-09-03T14:14:05;11.80;;;4.55;;
22449;SDS011;11392;57.390;-2.468;2022-09-03T14:16:39;9.27;;;3.35;;
22449;SDS011;11392;57.390;-2.468;2022-09-03T14:19:40;12.18;;;3.70;;
22449;SDS011;11392;57.390;-2.468;2022-09-03T14:24:47;9.70;;;3.50;;
22449;SDS011;11392;57.390;-2.468;2022-09-03T14:27:36;12.63;;;3.58;;
22449;SDS011;11392;57.390;-2.468;2022-09-03T14:30:05;14.30;;;4.20;;
22449;SDS011;11392;57.390;-2.468;2022-09-03T14:35:50;15.07;;;4.00;;
22449;SDS011;11392;57.390;-2.468;2022-09-03T14:48:11;11.85;;;3.78;;
22449;SDS011;11392;57.390;-2.468;2022-09-03T14:56:49;11.25;;;4.32;;
22449;SDS011;11392;57.390;-2.468;2022-09-03T14:59:56;10.43;;;3.50;;
22449;SDS011;11392;57.390;-2.468;2022-09-03T15:13:25;11.10;;;4.03;;
22449;SDS011;11392;57.390;-2.468;2022-09-03T15:16:05;15.38;;;5.30;;
22449;SDS011;11392;57.390;-2.468;2022-09-03T15:24:49;19.40;;;4.50;;
22449;SDS011;11392;57.390;-2.468;2022-09-03T15:27:29;14.43;;;3.85;;
22449;SDS011;11392;57.390;-2.468;2022-09-03T15:30:10;15.65;;;5.40;;
22449;SDS011;11392;57.390;-2.468;2022-09-03T15:32:59;9.85;;;3.62;;
22449;SDS011;11392;57.390;-2.468;2022-09-03T15:36:12;17.83;;;5.18;;
22449;SDS011;11392;57.390;-2.468;2022-09-03T15:39:03;14.57;;;5.00;;
22449;SDS011;11392;57.390;-2.468;2022-09-03T15:41:57;12.07;;;4.53;;
22449;SDS011;11392;57.390;-2.468;2022-09-03T15:44:27;11.65;;;4.50;;
22449;SDS011;11392;57.390;-2.468;2022-09-03T15:47:06;14.05;;;4.07;;
22449;SDS011;11392;57.390;-2.468;2022-09-03T15:55:10;18.15;;;5.70;;
22449;SDS011;11392;57.390;-2.468;2022-09-03T15:57:44;14.75;;;5.45;;
22449;SDS011;11392;57.390;-2.468;2022-09-03T16:00:20;15.65;;;5.57;;
22449;SDS011;11392;57.390;-2.468;2022-09-03T16:02:54;15.73;;;5.28;;
22449;SDS011;11392;57.390;-2.468;2022-09-03T16:05:59;15.63;;;4.62;;
22449;SDS011;11392;57.390;-2.468;2022-09-03T16:08:58;13.57;;;4.20;;
22449;SDS011;11392;57.390;-2.468;2022-09-03T16:11:35;12.77;;;5.10;;
22449;SDS011;11392;57.390;-2.468;2022-09-03T16:14:57;11.38;;;5.03;;
22449;SDS011;11392;57.390;-2.468;2022-09-03T16:20:08;15.80;;;4.75;;
22449;SDS011;11392;57.390;-2.468;2022-09-03T16:22:59;13.73;;;5.05;;
22449;SDS011;11392;57.390;-2.468;2022-09-03T16:25:57;23.42;;;5.75;;
22449;SDS011;11392;57.390;-2.468;2022-09-03T16:31:39;16.17;;;5.28;;
22449;SDS011;11392;57.390;-2.468;2022-09-03T16:40:09;14.77;;;5.00;;
22449;SDS011;11392;57.390;-2.468;2022-09-03T16:42:52;15.07;;;4.90;;
22449;SDS011;11392;57.390;-2.468;2022-09-03T17:00:26;14.38;;;4.80;;
22449;SDS011;11392;57.390;-2.468;2022-09-03T17:03:17;15.82;;;5.47;;
22449;SDS011;11392;57.390;-2.468;2022-09-03T17:09:02;16.52;;;5.05;;
22449;SDS011;11392;57.390;-2.468;2022-09-03T17:28:41;18.75;;;6.25;;
22449;SDS011;11392;57.390;-2.468;2022-09-03T17:31:28;21.17;;;5.18;;
22449;SDS011;11392;57.390;-2.468;2022-09-03T17:37:41;16.48;;;5.05;;
22449;SDS011;11392;57.390;-2.468;2022-09-03T17:43:34;16.62;;;4.75;;
22449;SDS011;11392;57.390;-2.468;2022-09-03T17:49:16;12.77;;;4.62;;
22449;SDS011;11392;57.390;-2.468;2022-09-03T17:52:02;19.20;;;5.22;;
22449;SDS011;11392;57.390;-2.468;2022-09-03T17:54:35;19.00;;;5.53;;
22449;SDS011;11392;57.390;-2.468;2022-09-03T18:00:07;22.05;;;5.45;;
22449;SDS011;11392;57.390;-2.468;2022-09-03T18:05:25;17.45;;;5.28;;
22449;SDS011;11392;57.390;-2.468;2022-09-03T18:13:42;17.55;;;4.95;;
22449;SDS011;11392;57.390;-2.468;2022-09-03T18:16:34;14.75;;;4.85;;
22449;SDS011;11392;57.390;-2.468;2022-09-03T18:19:07;14.07;;;4.68;;
22449;SDS011;11392;57.390;-2.468;2022-09-03T18:21:43;15.98;;;5.10;;
22449;SDS011;11392;57.390;-2.468;2022-09-03T18:24:33;20.98;;;5.32;;
22449;SDS011;11392;57.390;-2.468;2022-09-03T18:30:25;14.05;;;4.57;;
22449;SDS011;11392;57.390;-2.468;2022-09-03T18:33:12;20.77;;;5.15;;
22449;SDS011;11392;57.390;-2.468;2022-09-03T18:36:01;20.12;;;5.53;;
22449;SDS011;11392;57.390;-2.468;2022-09-03T18:38:47;23.10;;;5.95;;
22449;SDS011;11392;57.390;-2.468;2022-09-03T18:41:44;15.52;;;6.05;;
22449;SDS011;11392;57.390;-2.468;2022-09-03T18:48:07;14.45;;;4.50;;
22449;SDS011;11392;57.390;-2.468;2022-09-03T18:50:57;14.87;;;5.22;;
22449;SDS011;11392;57.390;-2.468;2022-09-03T19:00:34;17.65;;;4.75;;
22449;SDS011;11392;57.390;-2.468;2022-09-03T19:03:28;15.65;;;5.32;;
22449;SDS011;11392;57.390;-2.468;2022-09-03T19:06:39;18.30;;;4.80;;
22449;SDS011;11392;57.390;-2.468;2022-09-03T19:09:36;15.05;;;5.22;;
22449;SDS011;11392;57.390;-2.468;2022-09-03T19:12:45;19.10;;;4.87;;
22449;SDS011;11392;57.390;-2.468;2022-09-03T19:15:36;16.52;;;4.43;;
22449;SDS011;11392;57.390;-2.468;2022-09-03T19:22:08;19.00;;;4.85;;
22449;SDS011;11392;57.390;-2.468;2022-09-03T19:25:03;15.98;;;4.55;;
22449;SDS011;11392;57.390;-2.468;2022-09-03T19:30:52;18.12;;;5.43;;
22449;SDS011;11392;57.390;-2.468;2022-09-03T19:43:43;14.63;;;4.65;;
22449;SDS011;11392;57.390;-2.468;2022-09-03T19:46:51;16.27;;;5.80;;
22449;SDS011;11392;57.390;-2.468;2022-09-03T19:49:48;15.50;;;4.28;;
22449;SDS011;11392;57.390;-2.468;2022-09-03T19:53:00;15.63;;;5.43;;
22449;SDS011;11392;57.390;-2.468;2022-09-03T19:55:56;13.82;;;5.28;;
22449;SDS011;11392;57.390;-2.468;2022-09-03T19:58:48;15.35;;;4.45;;
22449;SDS011;11392;57.390;-2.468;2022-09-03T20:01:41;14.25;;;4.35;;
22449;SDS011;11392;57.390;-2.468;2022-09-03T20:04:31;21.48;;;6.05;;
22449;SDS011;11392;57.390;-2.468;2022-09-03T20:07:19;18.12;;;5.15;;
22449;SDS011;11392;57.390;-2.468;2022-09-03T20:10:08;17.83;;;5.05;;
22449;SDS011;11392;57.390;-2.468;2022-09-03T20:18:12;15.27;;;4.25;;
22449;SDS011;11392;57.390;-2.468;2022-09-03T20:20:51;18.87;;;6.20;;
22449;SDS011;11392;57.390;-2.468;2022-09-03T20:23:29;16.08;;;5.00;;
22449;SDS011;11392;57.390;-2.468;2022-09-03T20:26:22;16.85;;;4.62;;
22449;SDS011;11392;57.390;-2.468;2022-09-03T20:34:45;14.75;;;4.70;;
22449;SDS011;11392;57.390;-2.468;2022-09-03T20:37:43;19.52;;;6.15;;
22449;SDS011;11392;57.390;-2.468;2022-09-03T20:45:57;18.30;;;5.03;;
22449;SDS011;11392;57.390;-2.468;2022-09-03T20:51:24;16.48;;;4.70;;
22449;SDS011;11392;57.390;-2.468;2022-09-03T21:18:49;16.33;;;5.35;;